sensor_id;sensor_type;location;lat;lon;timestamp;pressure;altitude;pressure_sealevel;temperature;humidity
29215;BME280;16252;49.816;7.964;2023-02-22T00:01:51;99960.97;;;8.23;53.14
29215;BME280;16252;49.816;7.964;2023-02-22T00:04:35;99971.41;;;8.27;53.15
29215;BME280;16252;49.816;7.964;2023-02-22T00:07:00;99847.69;;;7.51;52.93
29215;BME280;16252;49.816;7.964;2023-02-22T00:09:26;99851.31;;;7.50;53.05
29215;BME280;16252;49.816;7.964;2023-02-22T00:11:51;99952.09;;;8.10;53.06
29215;BME280;16252;49.816;7.964;2023-02-22T00:14:17;99802.66;;;7.21;53.24
29215;BME280;16252;49.816;7.964;2023-02-22T00:16:44;99900.28;;;7.74;53.17
29215;BME280;16252;49.816;7.964;2023-02-22T00:19:09;99855.13;;;7.46;53.26
29215;BME280;16252;49.816;7.964;2023-02-22T00:21:35;99941.19;;;8.00;52.93
29215;BME280;16252;49.816;7.964;2023-02-22T00:24:02;99929.75;;;7.86;53.53
29215;BME280;16252;49.816;7.964;2023-02-22T00:26:47;99851.28;;;7.37;53.53
29215;BME280;16252;49.816;7.964;2023-02-22T00:29:12;99813.97;;;7.24;53.63
29215;BME280;16252;49.816;7.964;2023-02-22T00:31:37;99962.31;;;8.03;53.69
29215;BME280;16252;49.816;7.964;2023-02-22T00:34:03;99868.78;;;7.54;53.61
29215;BME280;16252;49.816;7.964;2023-02-22T00:36:28;99959.41;;;8.07;53.59
29215;BME280;16252;49.816;7.964;2023-02-22T00:38:54;99837.22;;;7.35;53.55
29215;BME280;16252;49.816;7.964;2023-02-22T00:41:19;99960.09;;;8.10;53.64
29215;BME280;16252;49.816;7.964;2023-02-22T00:43:45;99931.22;;;7.90;53.65
29215;BME280;16252;49.816;7.964;2023-02-22T00:46:12;99959.88;;;8.13;53.72
29215;BME280;16252;49.816;7.964;2023-02-22T00:48:37;99948.31;;;8.00;53.56
29215;BME280;16252;49.816;7.964;2023-02-22T00:51:02;99832.66;;;7.37;53.49
29215;BME280;16252;49.816;7.964;2023-02-22T00:53:28;99812.03;;;7.26;53.50
29215;BME280;16252;49.816;7.964;2023-02-22T00:55:53;99915.13;;;7.78;53.39
29215;BME280;16252;49.816;7.964;2023-02-22T00:58:19;99797.28;;;7.08;53.29
29215;BME280;16252;49.816;7.964;2023-02-22T01:00:45;99902.94;;;7.74;53.43
29215;BME280;16252;49.816;7.964;2023-02-22T01:03:13;99935.19;;;7.97;53.65
29215;BME280;16252;49.816;7.964;2023-02-22T01:05:39;99929.94;;;7.82;53.34
29215;BME280;16252;49.816;7.964;2023-02-22T01:08:06;99923.88;;;7.80;53.34
29215;BME280;16252;49.816;7.964;2023-02-22T01:10:32;99929.94;;;7.82;53.07
29215;BME280;16252;49.816;7.964;2023-02-22T01:12:58;99899.81;;;7.55;53.04
29215;BME280;16252;49.816;7.964;2023-02-22T01:15:25;99905.00;;;7.56;53.00
29215;BME280;16252;49.816;7.964;2023-02-22T01:17:55;99869.34;;;7.32;53.03
29215;BME280;16252;49.816;7.964;2023-02-22T01:20:22;99925.47;;;7.56;53.26
29215;BME280;16252;49.816;7.964;2023-02-22T01:22:51;99926.44;;;7.55;53.28
29215;BME280;16252;49.816;7.964;2023-02-22T01:25:20;99908.59;;;7.43;53.52
29215;BME280;16252;49.816;7.964;2023-02-22T01:27:47;99932.69;;;7.54;53.40
29215;BME280;16252;49.816;7.964;2023-02-22T01:30:15;99922.03;;;7.54;53.61
29215;BME280;16252;49.816;7.964;2023-02-22T01:32:41;99919.78;;;7.48;53.50
29215;BME280;16252;49.816;7.964;2023-02-22T01:35:10;99913.28;;;7.52;53.58
29215;BME280;16252;49.816;7.964;2023-02-22T01:37:38;99911.69;;;7.49;53.59
29215;BME280;16252;49.816;7.964;2023-02-22T01:40:05;99880.94;;;7.31;53.65
29215;BME280;16252;49.816;7.964;2023-02-22T01:42:31;99928.22;;;7.54;53.49
29215;BME280;16252;49.816;7.964;2023-02-22T01:47:55;99918.19;;;7.45;53.15
29215;BME280;16252;49.816;7.964;2023-02-22T01:50:22;99809.41;;;6.70;53.27
29215;BME280;16252;49.816;7.964;2023-02-22T01:52:47;99926.38;;;7.42;53.04
29215;BME280;16252;49.816;7.964;2023-02-22T01:55:14;99794.72;;;6.65;53.06
29215;BME280;16252;49.816;7.964;2023-02-22T01:57:40;99918.31;;;7.29;53.17
29215;BME280;16252;49.816;7.964;2023-02-22T02:00:09;99902.53;;;7.26;53.36
29215;BME280;16252;49.816;7.964;2023-02-22T02:02:36;99884.22;;;7.07;53.45
29215;BME280;16252;49.816;7.964;2023-02-22T02:05:05;99838.03;;;6.81;53.52
29215;BME280;16252;49.816;7.964;2023-02-22T02:07:33;99807.66;;;6.57;53.30
29215;BME280;16252;49.816;7.964;2023-02-22T02:10:03;99903.88;;;7.19;53.86
29215;BME280;16252;49.816;7.964;2023-02-22T02:12:32;99904.06;;;7.16;53.53
29215;BME280;16252;49.816;7.964;2023-02-22T02:17:48;99845.59;;;6.87;53.53
29215;BME280;16252;49.816;7.964;2023-02-22T02:25:54;99891.44;;;7.20;54.00
29215;BME280;16252;49.816;7.964;2023-02-22T02:28:39;99808.38;;;6.73;53.41
29215;BME280;16252;49.816;7.964;2023-02-22T02:34:02;99881.28;;;7.12;53.45
29215;BME280;16252;49.816;7.964;2023-02-22T02:36:54;99881.84;;;7.17;53.41
29215;BME280;16252;49.816;7.964;2023-02-22T02:41:56;99769.22;;;6.34;53.35
29215;BME280;16252;49.816;7.964;2023-02-22T02:44:32;99811.53;;;6.65;53.39
29215;BME280;16252;49.816;7.964;2023-02-22T02:47:02;99842.56;;;6.79;53.18
29215;BME280;16252;49.816;7.964;2023-02-22T02:49:33;99838.38;;;6.75;53.17
29215;BME280;16252;49.816;7.964;2023-02-22T02:52:01;99730.03;;;6.08;53.24
29215;BME280;16252;49.816;7.964;2023-02-22T02:54:27;99848.66;;;6.67;53.48
29215;BME280;16252;49.816;7.964;2023-02-22T02:56:55;99878.06;;;6.92;53.38
29215;BME280;16252;49.816;7.964;2023-02-22T02:59:26;99877.50;;;6.87;53.42
29215;BME280;16252;49.816;7.964;2023-02-22T03:07:53;99869.34;;;6.90;53.25
29215;BME280;16252;49.816;7.964;2023-02-22T03:15:43;99832.34;;;6.59;53.57
29215;BME280;16252;49.816;7.964;2023-02-22T03:18:22;99857.69;;;6.64;53.79
29215;BME280;16252;49.816;7.964;2023-02-22T03:20:54;99817.50;;;6.40;53.67
29215;BME280;16252;49.816;7.964;2023-02-22T03:26:00;99863.66;;;6.68;54.07
29215;BME280;16252;49.816;7.964;2023-02-22T03:28:28;99847.59;;;6.55;53.66
29215;BME280;16252;49.816;7.964;2023-02-22T03:31:04;99831.09;;;6.50;54.00
29215;BME280;16252;49.816;7.964;2023-02-22T03:33:45;99821.69;;;6.44;54.08
29215;BME280;16252;49.816;7.964;2023-02-22T03:36:17;99731.25;;;5.89;54.02
29215;BME280;16252;49.816;7.964;2023-02-22T03:38:44;99854.66;;;6.56;54.08
29215;BME280;16252;49.816;7.964;2023-02-22T03:41:11;99770.66;;;6.11;54.07
29215;BME280;16252;49.816;7.964;2023-02-22T03:43:42;99842.56;;;6.65;54.09
29215;BME280;16252;49.816;7.964;2023-02-22T03:46:10;99758.78;;;6.02;53.89
29215;BME280;16252;49.816;7.964;2023-02-22T03:48:46;99740.75;;;5.93;53.85
29215;BME280;16252;49.816;7.964;2023-02-22T03:51:14;99833.09;;;6.46;54.08
29215;BME280;16252;49.816;7.964;2023-02-22T03:53:42;99846.00;;;6.53;53.84
29215;BME280;16252;49.816;7.964;2023-02-22T03:56:10;99697.91;;;5.54;53.72
29215;BME280;16252;49.816;7.964;2023-02-22T03:58:39;99800.91;;;6.22;53.73
29215;BME280;16252;49.816;7.964;2023-02-22T04:01:08;99764.47;;;5.96;53.96
29215;BME280;16252;49.816;7.964;2023-02-22T04:03:33;99835.53;;;6.35;53.73
29215;BME280;16252;49.816;7.964;2023-02-22T04:05:58;99801.56;;;6.12;54.00
29215;BME280;16252;49.816;7.964;2023-02-22T04:08:24;99730.00;;;5.65;54.01
29215;BME280;16252;49.816;7.964;2023-02-22T04:10:49;99773.09;;;5.99;54.12
29215;BME280;16252;49.816;7.964;2023-02-22T04:13:14;99792.75;;;6.11;53.90
29215;BME280;16252;49.816;7.964;2023-02-22T04:15:40;99764.72;;;5.91;54.11
29215;BME280;16252;49.816;7.964;2023-02-22T04:18:05;99715.47;;;5.71;53.71
29215;BME280;16252;49.816;7.964;2023-02-22T04:20:30;99767.22;;;5.94;53.76
29215;BME280;16252;49.816;7.964;2023-02-22T04:22:56;99797.78;;;6.16;53.72
29215;BME280;16252;49.816;7.964;2023-02-22T04:25:22;99698.47;;;5.45;53.86
29215;BME280;16252;49.816;7.964;2023-02-22T04:27:48;99749.91;;;5.87;53.77
29215;BME280;16252;49.816;7.964;2023-02-22T04:30:18;99818.94;;;6.32;54.13
29215;BME280;16252;49.816;7.964;2023-02-22T04:32:44;99802.06;;;6.18;53.90
29215;BME280;16252;49.816;7.964;2023-02-22T04:35:10;99744.59;;;5.87;53.76
29215;BME280;16252;49.816;7.964;2023-02-22T04:37:35;99680.69;;;5.47;53.52
29215;BME280;16252;49.816;7.964;2023-02-22T04:40:01;99714.97;;;5.64;53.73
29215;BME280;16252;49.816;7.964;2023-02-22T04:42:27;99810.78;;;6.20;53.65
29215;BME280;16252;49.816;7.964;2023-02-22T04:44:53;99796.81;;;6.02;53.69
29215;BME280;16252;49.816;7.964;2023-02-22T04:47:18;99820.47;;;6.21;53.86
29215;BME280;16252;49.816;7.964;2023-02-22T04:49:44;99745.72;;;5.69;53.76
29215;BME280;16252;49.816;7.964;2023-02-22T04:52:10;99718.22;;;5.55;53.96
29215;BME280;16252;49.816;7.964;2023-02-22T04:54:35;99783.22;;;5.93;53.94
29215;BME280;16252;49.816;7.964;2023-02-22T04:57:01;99775.22;;;5.78;54.02
29215;BME280;16252;49.816;7.964;2023-02-22T04:59:26;99743.59;;;5.59;54.13
29215;BME280;16252;49.816;7.964;2023-02-22T05:01:51;99776.66;;;5.84;54.13
29215;BME280;16252;49.816;7.964;2023-02-22T05:04:17;99813.13;;;5.96;54.28
29215;BME280;16252;49.816;7.964;2023-02-22T05:06:42;99799.94;;;5.95;54.16
29215;BME280;16252;49.816;7.964;2023-02-22T05:09:08;99731.94;;;5.62;54.14
29215;BME280;16252;49.816;7.964;2023-02-22T05:11:33;99747.41;;;5.70;53.98
29215;BME280;16252;49.816;7.964;2023-02-22T05:13:58;99689.38;;;5.35;54.19
29215;BME280;16252;49.816;7.964;2023-02-22T05:16:23;99772.88;;;5.88;54.22
29215;BME280;16252;49.816;7.964;2023-02-22T05:18:49;99766.22;;;5.81;54.26
29215;BME280;16252;49.816;7.964;2023-02-22T05:21:14;99781.41;;;5.93;54.16
29215;BME280;16252;49.816;7.964;2023-02-22T05:23:40;99802.81;;;6.06;54.00
29215;BME280;16252;49.816;7.964;2023-02-22T05:26:05;99801.97;;;6.05;54.05
29215;BME280;16252;49.816;7.964;2023-02-22T05:28:31;99674.56;;;5.31;54.00
29215;BME280;16252;49.816;7.964;2023-02-22T05:30:56;99559.34;;;4.62;54.11
29215;BME280;16252;49.816;7.964;2023-02-22T05:33:22;99561.50;;;4.55;53.98
29215;BME280;16252;49.816;7.964;2023-02-22T05:35:47;99798.63;;;6.02;54.03
29215;BME280;16252;49.816;7.964;2023-02-22T05:38:13;99790.56;;;6.03;54.06
29215;BME280;16252;49.816;7.964;2023-02-22T05:40:39;99643.91;;;5.11;54.18
29215;BME280;16252;49.816;7.964;2023-02-22T05:43:05;99798.53;;;6.03;54.22
29215;BME280;16252;49.816;7.964;2023-02-22T05:45:31;99635.19;;;5.09;54.13
29215;BME280;16252;49.816;7.964;2023-02-22T05:47:56;99790.44;;;6.05;54.16
29215;BME280;16252;49.816;7.964;2023-02-22T05:50:22;99767.22;;;5.94;53.99
29215;BME280;16252;49.816;7.964;2023-02-22T05:52:48;99782.69;;;6.02;54.13
29215;BME280;16252;49.816;7.964;2023-02-22T05:55:17;99748.59;;;5.80;54.12
29215;BME280;16252;49.816;7.964;2023-02-22T05:57:42;99793.31;;;6.02;53.95
29215;BME280;16252;49.816;7.964;2023-02-22T06:00:08;99745.53;;;5.72;54.08
29215;BME280;16252;49.816;7.964;2023-02-22T06:02:34;99789.31;;;5.95;54.14
29215;BME280;16252;49.816;7.964;2023-02-22T06:04:59;99693.63;;;5.37;53.95
29215;BME280;16252;49.816;7.964;2023-02-22T06:07:25;99650.38;;;5.07;53.66
29215;BME280;16252;49.816;7.964;2023-02-22T06:09:51;99652.34;;;5.03;54.01
29215;BME280;16252;49.816;7.964;2023-02-22T06:12:17;99755.31;;;5.71;54.11
29215;BME280;16252;49.816;7.964;2023-02-22T06:14:43;99800.81;;;5.95;54.14
29215;BME280;16252;49.816;7.964;2023-02-22T06:17:13;99663.25;;;5.13;53.96
29215;BME280;16252;49.816;7.964;2023-02-22T06:19:38;99724.84;;;5.48;54.15
29215;BME280;16252;49.816;7.964;2023-02-22T06:22:05;99804.53;;;5.91;54.10
29215;BME280;16252;49.816;7.964;2023-02-22T06:24:30;99691.31;;;5.17;54.09
29215;BME280;16252;49.816;7.964;2023-02-22T06:27:00;99799.31;;;5.90;54.12
29215;BME280;16252;49.816;7.964;2023-02-22T06:29:26;99794.47;;;5.82;54.01
29215;BME280;16252;49.816;7.964;2023-02-22T06:31:52;99718.44;;;5.36;54.21
29215;BME280;16252;49.816;7.964;2023-02-22T06:34:18;99692.34;;;5.14;54.18
29215;BME280;16252;49.816;7.964;2023-02-22T06:36:43;99774.72;;;5.57;54.11
29215;BME280;16252;49.816;7.964;2023-02-22T06:39:09;99767.03;;;5.53;54.32
29215;BME280;16252;49.816;7.964;2023-02-22T06:41:40;99734.81;;;5.29;54.44
29215;BME280;16252;49.816;7.964;2023-02-22T06:44:07;99775.25;;;5.48;54.41
29215;BME280;16252;49.816;7.964;2023-02-22T06:46:32;99699.41;;;4.99;54.57
29215;BME280;16252;49.816;7.964;2023-02-22T06:48:57;99715.31;;;4.99;54.33
29215;BME280;16252;49.816;7.964;2023-02-22T06:51:26;99829.28;;;5.77;54.56
29215;BME280;16252;49.816;7.964;2023-02-22T06:53:51;99721.78;;;5.10;54.54
29215;BME280;16252;49.816;7.964;2023-02-22T06:56:17;99763.28;;;5.41;54.57
29215;BME280;16252;49.816;7.964;2023-02-22T06:58:43;99828.63;;;5.88;54.66
29215;BME280;16252;49.816;7.964;2023-02-22T07:01:09;99829.75;;;5.84;54.38
29215;BME280;16252;49.816;7.964;2023-02-22T07:03:35;99768.41;;;5.44;54.27
29215;BME280;16252;49.816;7.964;2023-02-22T07:06:00;99668.75;;;4.80;54.01
29215;BME280;16252;49.816;7.964;2023-02-22T07:08:27;99698.03;;;4.92;54.09
29215;BME280;16252;49.816;7.964;2023-02-22T07:10:52;99688.47;;;4.90;54.01
29215;BME280;16252;49.816;7.964;2023-02-22T07:13:18;99837.41;;;5.74;54.12
29215;BME280;16252;49.816;7.964;2023-02-22T07:15:43;99840.25;;;5.71;54.10
29215;BME280;16252;49.816;7.964;2023-02-22T07:18:09;99808.44;;;5.55;54.26
29215;BME280;16252;49.816;7.964;2023-02-22T07:20:34;99745.41;;;5.14;54.38
29215;BME280;16252;49.816;7.964;2023-02-22T07:23:00;99642.78;;;4.54;54.25
29215;BME280;16252;49.816;7.964;2023-02-22T07:25:25;99812.63;;;5.59;54.44
29215;BME280;16252;49.816;7.964;2023-02-22T07:27:51;99814.69;;;5.54;54.64
29215;BME280;16252;49.816;7.964;2023-02-22T07:30:20;99836.66;;;5.72;54.98
29215;BME280;16252;49.816;7.964;2023-02-22T07:32:49;99650.22;;;4.64;55.00
29215;BME280;16252;49.816;7.964;2023-02-22T07:35:27;99716.22;;;5.14;55.29
29215;BME280;16252;49.816;7.964;2023-02-22T07:37:52;99791.31;;;5.61;55.18
29215;BME280;16252;49.816;7.964;2023-02-22T07:40:19;99839.84;;;5.93;55.36
29215;BME280;16252;49.816;7.964;2023-02-22T07:45:33;99765.41;;;5.64;55.78
29215;BME280;16252;49.816;7.964;2023-02-22T07:48:00;99690.88;;;5.25;55.71
29215;BME280;16252;49.816;7.964;2023-02-22T07:50:27;99752.00;;;5.68;55.91
29215;BME280;16252;49.816;7.964;2023-02-22T07:52:56;99836.59;;;6.33;55.77
29215;BME280;16252;49.816;7.964;2023-02-22T07:55:24;99796.81;;;6.17;56.04
29215;BME280;16252;49.816;7.964;2023-02-22T07:57:51;99841.72;;;6.50;56.04
29215;BME280;16252;49.816;7.964;2023-02-22T08:02:49;99777.28;;;6.32;56.15
29215;BME280;16252;49.816;7.964;2023-02-22T08:05:14;99809.34;;;6.58;56.30
29215;BME280;16252;49.816;7.964;2023-02-22T08:07:40;99730.69;;;6.26;56.37
29215;BME280;16252;49.816;7.964;2023-02-22T08:10:06;99842.03;;;7.01;56.79
29215;BME280;16252;49.816;7.964;2023-02-22T08:12:33;99807.41;;;6.88;56.84
29215;BME280;16252;49.816;7.964;2023-02-22T08:14:59;99837.53;;;7.16;56.71
29215;BME280;16252;49.816;7.964;2023-02-22T08:17:24;99720.69;;;6.59;56.90
29215;BME280;16252;49.816;7.964;2023-02-22T08:19:49;99763.22;;;6.86;56.94
29215;BME280;16252;49.816;7.964;2023-02-22T08:22:15;99714.75;;;6.68;57.10
29215;BME280;16252;49.816;7.964;2023-02-22T08:24:40;99846.44;;;7.56;57.18
29215;BME280;16252;49.816;7.964;2023-02-22T08:27:05;99846.47;;;7.69;57.15
29215;BME280;16252;49.816;7.964;2023-02-22T08:29:31;99731.03;;;7.18;57.08
29215;BME280;16252;49.816;7.964;2023-02-22T08:31:57;99822.34;;;7.85;57.24
29215;BME280;16252;49.816;7.964;2023-02-22T08:34:23;99785.03;;;7.72;57.23
29215;BME280;16252;49.816;7.964;2023-02-22T08:36:48;99840.28;;;8.21;57.35
29215;BME280;16252;49.816;7.964;2023-02-22T08:39:14;99821.84;;;8.18;57.31
29215;BME280;16252;49.816;7.964;2023-02-22T08:41:39;99739.53;;;7.75;57.56
29215;BME280;16252;49.816;7.964;2023-02-22T08:44:04;99754.56;;;8.02;57.43
29215;BME280;16252;49.816;7.964;2023-02-22T08:46:30;99733.25;;;8.02;57.41
29215;BME280;16252;49.816;7.964;2023-02-22T08:48:55;99728.34;;;8.09;57.53
29215;BME280;16252;49.816;7.964;2023-02-22T08:51:20;99774.72;;;8.44;57.28
29215;BME280;16252;49.816;7.964;2023-02-22T08:53:45;99799.41;;;8.72;57.30
29215;BME280;16252;49.816;7.964;2023-02-22T08:56:11;99775.97;;;8.64;57.34
29215;BME280;16252;49.816;7.964;2023-02-22T08:58:36;99836.44;;;9.14;57.06
29215;BME280;16252;49.816;7.964;2023-02-22T09:01:01;99838.78;;;9.18;57.07
29215;BME280;16252;49.816;7.964;2023-02-22T09:03:27;99801.22;;;9.08;57.25
29215;BME280;16252;49.816;7.964;2023-02-22T09:05:52;99838.91;;;9.41;57.07
29215;BME280;16252;49.816;7.964;2023-02-22T09:08:18;99671.72;;;8.43;56.93
29215;BME280;16252;49.816;7.964;2023-02-22T09:10:44;99765.34;;;9.13;57.41
29215;BME280;16252;49.816;7.964;2023-02-22T09:13:10;99794.69;;;9.37;57.73
29215;BME280;16252;49.816;7.964;2023-02-22T09:15:35;99824.81;;;9.63;57.69
29215;BME280;16252;49.816;7.964;2023-02-22T09:18:02;99825.06;;;9.71;57.43
29215;BME280;16252;49.816;7.964;2023-02-22T09:20:28;99784.69;;;9.51;57.63
29215;BME280;16252;49.816;7.964;2023-02-22T09:22:53;99823.66;;;9.78;57.62
29215;BME280;16252;49.816;7.964;2023-02-22T09:25:19;99783.25;;;9.59;57.67
29215;BME280;16252;49.816;7.964;2023-02-22T09:27:50;99775.00;;;9.62;58.10
29215;BME280;16252;49.816;7.964;2023-02-22T09:30:28;99818.97;;;10.04;58.17
29215;BME280;16252;49.816;7.964;2023-02-22T09:32:58;99817.78;;;10.08;58.17
29215;BME280;16252;49.816;7.964;2023-02-22T09:35:23;99805.00;;;10.01;57.99
29215;BME280;16252;49.816;7.964;2023-02-22T09:37:52;99817.28;;;10.14;57.91
29215;BME280;16252;49.816;7.964;2023-02-22T09:40:17;99749.41;;;9.70;57.85
29215;BME280;16252;49.816;7.964;2023-02-22T09:42:59;99795.06;;;10.14;58.03
29215;BME280;16252;49.816;7.964;2023-02-22T09:48:13;99790.31;;;10.17;57.99
29215;BME280;16252;49.816;7.964;2023-02-22T09:50:42;99796.78;;;10.26;57.92
29215;BME280;16252;49.816;7.964;2023-02-22T09:53:24;99806.91;;;10.34;58.03
29215;BME280;16252;49.816;7.964;2023-02-22T09:56:25;99796.19;;;10.45;57.84
29215;BME280;16252;49.816;7.964;2023-02-22T09:58:55;99806.16;;;10.43;57.92
29215;BME280;16252;49.816;7.964;2023-02-22T10:01:33;99815.56;;;10.49;58.09
29215;BME280;16252;49.816;7.964;2023-02-22T10:09:33;99802.66;;;10.65;58.01
29215;BME280;16252;49.816;7.964;2023-02-22T10:12:09;99788.16;;;10.68;58.23
29215;BME280;16252;49.816;7.964;2023-02-22T10:14:47;99646.44;;;9.89;58.11
29215;BME280;16252;49.816;7.964;2023-02-22T10:25:29;99787.72;;;11.17;58.00
29215;BME280;16252;49.816;7.964;2023-02-22T10:28:20;99802.75;;;11.41;57.68
29215;BME280;16252;49.816;7.964;2023-02-22T10:30:56;99797.84;;;11.46;57.72
29215;BME280;16252;49.816;7.964;2023-02-22T10:33:26;99784.19;;;11.49;57.69
29215;BME280;16252;49.816;7.964;2023-02-22T10:35:54;99744.19;;;11.36;57.53
29215;BME280;16252;49.816;7.964;2023-02-22T10:38:32;99788.94;;;11.78;57.20
29215;BME280;16252;49.816;7.964;2023-02-22T10:43:39;99787.59;;;12.04;57.67
29215;BME280;16252;49.816;7.964;2023-02-22T10:46:07;99750.25;;;11.91;57.60
29215;BME280;16252;49.816;7.964;2023-02-22T10:48:35;99782.81;;;12.29;57.95
29215;BME280;16252;49.816;7.964;2023-02-22T10:51:05;99778.16;;;12.62;57.89
29215;BME280;16252;49.816;7.964;2023-02-22T10:53:33;99777.41;;;13.00;58.27
29215;BME280;16252;49.816;7.964;2023-02-22T10:56:20;99779.75;;;13.43;58.08
29215;BME280;16252;49.816;7.964;2023-02-22T10:59:03;99750.31;;;13.81;57.64
29215;BME280;16252;49.816;7.964;2023-02-22T11:04:14;99772.72;;;14.93;56.84
29215;BME280;16252;49.816;7.964;2023-02-22T11:06:42;99740.59;;;15.28;56.03
29215;BME280;16252;49.816;7.964;2023-02-22T11:09:17;99759.38;;;15.91;55.29
29215;BME280;16252;49.816;7.964;2023-02-22T11:11:47;99742.22;;;16.27;54.69
29215;BME280;16252;49.816;7.964;2023-02-22T11:14:27;99760.91;;;16.80;54.30
29215;BME280;16252;49.816;7.964;2023-02-22T11:16:55;99721.09;;;16.99;53.42
29215;BME280;16252;49.816;7.964;2023-02-22T11:19:23;99752.28;;;17.52;52.57
29215;BME280;16252;49.816;7.964;2023-02-22T11:21:52;99748.09;;;17.82;51.79
29215;BME280;16252;49.816;7.964;2023-02-22T11:24:21;99705.97;;;17.80;51.13
29215;BME280;16252;49.816;7.964;2023-02-22T11:26:50;99710.53;;;18.04;50.50
29215;BME280;16252;49.816;7.964;2023-02-22T11:31:44;99736.91;;;18.18;49.54
29215;BME280;16252;49.816;7.964;2023-02-22T11:34:34;99728.44;;;18.05;49.79
29215;BME280;16252;49.816;7.964;2023-02-22T11:39:46;99721.88;;;17.50;49.44
29215;BME280;16252;49.816;7.964;2023-02-22T11:42:30;99706.09;;;17.13;49.93
29215;BME280;16252;49.816;7.964;2023-02-22T11:45:12;99713.00;;;16.99;49.94
29215;BME280;16252;49.816;7.964;2023-02-22T11:47:56;99709.38;;;16.74;49.98
29215;BME280;16252;49.816;7.964;2023-02-22T11:50:33;99704.03;;;16.47;50.10
29215;BME280;16252;49.816;7.964;2023-02-22T11:53:11;99705.59;;;16.24;50.67
29215;BME280;16252;49.816;7.964;2023-02-22T12:01:50;99684.78;;;15.64;51.33
29215;BME280;16252;49.816;7.964;2023-02-22T12:04:54;99691.81;;;15.57;51.80
29215;BME280;16252;49.816;7.964;2023-02-22T12:07:35;99697.69;;;15.52;52.00
29215;BME280;16252;49.816;7.964;2023-02-22T12:10:16;99659.03;;;15.26;51.83
29215;BME280;16252;49.816;7.964;2023-02-22T12:20:39;99688.63;;;15.17;52.66
29215;BME280;16252;49.816;7.964;2023-02-22T12:23:26;99684.53;;;15.13;52.67
29215;BME280;16252;49.816;7.964;2023-02-22T12:26:17;99685.47;;;15.04;52.60
29215;BME280;16252;49.816;7.964;2023-02-22T12:28:57;99664.59;;;14.88;52.73
29215;BME280;16252;49.816;7.964;2023-02-22T12:31:35;99673.94;;;14.94;53.02
29215;BME280;16252;49.816;7.964;2023-02-22T12:36:50;99664.97;;;14.76;53.00
29215;BME280;16252;49.816;7.964;2023-02-22T12:39:39;99674.69;;;14.86;52.91
29215;BME280;16252;49.816;7.964;2023-02-22T12:42:15;99639.72;;;14.59;53.11
29215;BME280;16252;49.816;7.964;2023-02-22T12:44:44;99671.34;;;14.74;53.12
29215;BME280;16252;49.816;7.964;2023-02-22T12:47:15;99663.59;;;14.71;53.34
29215;BME280;16252;49.816;7.964;2023-02-22T12:49:58;99669.38;;;14.77;53.42
29215;BME280;16252;49.816;7.964;2023-02-22T12:52:37;99661.28;;;14.77;53.52
29215;BME280;16252;49.816;7.964;2023-02-22T13:00:38;99661.38;;;14.85;53.68
29215;BME280;16252;49.816;7.964;2023-02-22T13:03:26;99663.66;;;14.80;53.81
29215;BME280;16252;49.816;7.964;2023-02-22T13:08:40;99623.78;;;14.65;53.86
29215;BME280;16252;49.816;7.964;2023-02-22T13:16:54;99611.56;;;14.71;53.87
29215;BME280;16252;49.816;7.964;2023-02-22T13:19:44;99620.44;;;14.81;53.88
29215;BME280;16252;49.816;7.964;2023-02-22T13:25:07;99616.22;;;14.79;53.99
29215;BME280;16252;49.816;7.964;2023-02-22T13:27:42;99655.44;;;14.99;53.69
29215;BME280;16252;49.816;7.964;2023-02-22T13:30:20;99652.75;;;14.99;53.92
29215;BME280;16252;49.816;7.964;2023-02-22T13:33:07;99651.88;;;14.99;53.86
29215;BME280;16252;49.816;7.964;2023-02-22T13:35:48;99653.03;;;14.96;53.99
29215;BME280;16252;49.816;7.964;2023-02-22T13:44:13;99645.84;;;14.97;53.87
29215;BME280;16252;49.816;7.964;2023-02-22T13:49:37;99577.53;;;14.52;54.19
29215;BME280;16252;49.816;7.964;2023-02-22T13:52:15;99632.97;;;14.90;53.99
29215;BME280;16252;49.816;7.964;2023-02-22T13:54:52;99611.28;;;14.74;53.98
29215;BME280;16252;49.816;7.964;2023-02-22T13:57:58;99629.88;;;14.85;54.12
29215;BME280;16252;49.816;7.964;2023-02-22T14:11:00;99624.28;;;14.79;54.62
29215;BME280;16252;49.816;7.964;2023-02-22T14:13:26;99628.97;;;14.94;53.78
29215;BME280;16252;49.816;7.964;2023-02-22T14:18:28;99610.31;;;14.65;54.54
29215;BME280;16252;49.816;7.964;2023-02-22T14:21:14;99571.75;;;14.47;54.52
29215;BME280;16252;49.816;7.964;2023-02-22T14:23:42;99614.88;;;14.65;54.60
29215;BME280;16252;49.816;7.964;2023-02-22T14:26:57;99620.66;;;14.70;54.82
29215;BME280;16252;49.816;7.964;2023-02-22T14:36:41;99580.28;;;14.42;54.82
29215;BME280;16252;49.816;7.964;2023-02-22T14:39:17;99600.63;;;14.55;54.77
29215;BME280;16252;49.816;7.964;2023-02-22T14:41:50;99619.56;;;14.63;55.16
29215;BME280;16252;49.816;7.964;2023-02-22T14:44:22;99617.88;;;14.62;55.22
29215;BME280;16252;49.816;7.964;2023-02-22T14:46:49;99582.06;;;14.34;55.26
29215;BME280;16252;49.816;7.964;2023-02-22T14:49:20;99602.75;;;14.51;55.10
29215;BME280;16252;49.816;7.964;2023-02-22T14:51:54;99550.34;;;14.27;55.18
29215;BME280;16252;49.816;7.964;2023-02-22T14:54:29;99583.38;;;14.47;55.03
29215;BME280;16252;49.816;7.964;2023-02-22T14:56:59;99616.34;;;14.59;54.95
29215;BME280;16252;49.816;7.964;2023-02-22T14:59:46;99593.81;;;14.50;54.79
29215;BME280;16252;49.816;7.964;2023-02-22T15:02:17;99584.75;;;14.34;55.16
29215;BME280;16252;49.816;7.964;2023-02-22T15:04:50;99613.66;;;14.59;54.93
29215;BME280;16252;49.816;7.964;2023-02-22T15:07:33;99616.47;;;14.58;54.93
29215;BME280;16252;49.816;7.964;2023-02-22T15:10:24;99620.31;;;14.55;54.96
29215;BME280;16252;49.816;7.964;2023-02-22T15:12:54;99603.41;;;14.35;55.10
29215;BME280;16252;49.816;7.964;2023-02-22T15:15:33;99618.81;;;14.43;55.42
29215;BME280;16252;49.816;7.964;2023-02-22T15:18:00;99574.09;;;14.14;55.51
29215;BME280;16252;49.816;7.964;2023-02-22T15:20:26;99545.91;;;13.91;55.56
29215;BME280;16252;49.816;7.964;2023-02-22T15:22:57;99574.38;;;14.11;55.46
29215;BME280;16252;49.816;7.964;2023-02-22T15:25:25;99432.59;;;13.20;55.50
29215;BME280;16252;49.816;7.964;2023-02-22T15:27:52;99593.63;;;14.16;55.75